createdAt,value
2022-11-29T00:01:42.232Z,21.70
2022-11-29T00:04:10.893Z,25.90
2022-11-29T00:06:39.532Z,24.30
2022-11-29T00:09:11.648Z,24.70
2022-11-29T00:12:00.221Z,26.30
2022-11-29T00:14:29.241Z,25.30
2022-11-29T00:17:02.190Z,26.50
2022-11-29T00:19:33.373Z,27.20
2022-11-29T00:22:02.416Z,27.90
2022-11-29T00:24:32.743Z,29.20
2022-11-29T00:29:30.324Z,22.40
2022-11-29T00:31:58.498Z,27.00
2022-11-29T00:34:26.576Z,24.30
2022-11-29T00:36:54.872Z,23.70
2022-11-29T00:39:23.475Z,29.10
2022-11-29T00:41:51.430Z,21.10
2022-11-29T00:44:20.609Z,25.10
2022-11-29T00:46:49.444Z,26.10
2022-11-29T00:49:17.565Z,21.10
2022-11-29T00:51:46.658Z,27.40
2022-11-29T00:54:15.158Z,23.90
2022-11-29T00:56:43.912Z,23.10
2022-11-29T00:59:12.147Z,24.00
2022-11-29T01:01:40.219Z,24.30
2022-11-29T01:04:08.455Z,21.90
2022-11-29T01:06:36.587Z,22.70
2022-11-29T01:09:05.061Z,25.40
2022-11-29T01:11:33.532Z,22.30
2022-11-29T01:14:03.057Z,30.90
2022-11-29T01:16:32.061Z,24.10
2022-11-29T01:19:00.683Z,24.00
2022-11-29T01:21:28.961Z,27.00
2022-11-29T01:23:57.584Z,23.90
2022-11-29T01:26:27.657Z,23.00
2022-11-29T01:28:57.930Z,21.40
2022-11-29T01:31:36.410Z,21.50
2022-11-29T01:34:05.877Z,24.10
2022-11-29T01:36:35.313Z,27.20
2022-11-29T01:39:05.737Z,24.60
2022-11-29T01:44:12.312Z,19.10
2022-11-29T01:46:43.522Z,20.30
2022-11-29T01:49:22.562Z,20.90
2022-11-29T01:51:55.483Z,24.10
2022-11-29T01:54:23.620Z,22.80
2022-11-29T01:56:52.970Z,22.00
2022-11-29T01:59:25.909Z,23.10
2022-11-29T02:02:02.974Z,24.40
2022-11-29T02:04:34.998Z,22.40
2022-11-29T02:07:03.798Z,24.40
2022-11-29T02:09:31.891Z,26.00
2022-11-29T02:12:06.172Z,24.30
2022-11-29T02:14:37.053Z,24.00
2022-11-29T02:17:27.747Z,22.50
2022-11-29T02:20:26.754Z,24.60
2022-11-29T02:23:13.520Z,23.00
2022-11-29T02:26:03.263Z,23.50
2022-11-29T02:28:56.209Z,21.60
2022-11-29T02:31:35.548Z,21.60
2022-11-29T02:34:06.348Z,19.40
2022-11-29T02:36:34.422Z,24.50
2022-11-29T02:39:05.429Z,20.20
2022-11-29T02:41:55.155Z,23.80
2022-11-29T02:44:40.495Z,22.80
2022-11-29T02:47:32.766Z,27.10
2022-11-29T02:50:19.008Z,25.40
2022-11-29T02:53:20.152Z,21.90
2022-11-29T02:56:07.128Z,22.30
2022-11-29T02:58:45.885Z,21.00
2022-11-29T03:01:24.013Z,25.10
2022-11-29T03:04:09.924Z,18.10
2022-11-29T03:06:57.103Z,20.60
2022-11-29T03:09:36.499Z,21.50
2022-11-29T03:12:25.969Z,24.40
2022-11-29T03:15:16.274Z,24.40
2022-11-29T03:18:33.507Z,23.50
2022-11-29T03:21:13.987Z,20.30
2022-11-29T03:26:26.851Z,21.70
2022-11-29T03:28:54.869Z,22.70
2022-11-29T03:31:36.183Z,24.10
2022-11-29T03:34:09.863Z,23.00
2022-11-29T03:36:54.867Z,24.90
2022-11-29T03:39:33.517Z,24.70
2022-11-29T03:42:11.793Z,24.60
2022-11-29T03:44:51.364Z,26.90
2022-11-29T03:47:29.089Z,29.20
2022-11-29T03:50:05.675Z,26.80
2022-11-29T03:52:55.820Z,25.30
2022-11-29T03:55:48.604Z,24.10
2022-11-29T03:58:22.890Z,22.50
2022-11-29T04:00:50.824Z,26.00
2022-11-29T04:03:53.235Z,26.90
2022-11-29T04:06:50.013Z,26.20
2022-11-29T04:09:36.583Z,34.10
2022-11-29T04:12:21.502Z,24.20
2022-11-29T04:15:04.136Z,25.40
2022-11-29T04:17:49.081Z,26.30
2022-11-29T04:20:45.442Z,24.20
2022-11-29T04:23:22.061Z,22.70
2022-11-29T04:26:11.891Z,26.80
2022-11-29T04:29:04.956Z,25.60
2022-11-29T04:31:33.175Z,25.60
2022-11-29T04:34:07.342Z,26.50
2022-11-29T04:37:13.407Z,26.30
2022-11-29T04:40:00.525Z,25.80
2022-11-29T04:42:34.537Z,26.80
2022-11-29T04:45:44.532Z,25.50
2022-11-29T04:48:30.647Z,22.50
2022-11-29T04:51:24.838Z,23.90
2022-11-29T04:54:06.985Z,28.40
2022-11-29T04:57:08.327Z,25.70
2022-11-29T05:00:00.893Z,27.40
2022-11-29T05:02:53.516Z,28.20
2022-11-29T05:05:43.730Z,32.90
2022-11-29T05:08:36.964Z,33.00
2022-11-29T05:11:32.667Z,29.50
2022-11-29T05:14:28.488Z,26.00
2022-11-29T05:17:08.970Z,28.10
2022-11-29T05:20:07.082Z,25.00
2022-11-29T05:22:35.154Z,22.00
2022-11-29T05:25:18.756Z,30.80
2022-11-29T05:27:52.530Z,38.50
2022-11-29T05:30:23.208Z,66.60
2022-11-29T05:33:09.503Z,48.30
2022-11-29T05:35:55.062Z,40.00
2022-11-29T05:39:15.593Z,33.70
2022-11-29T05:42:08.494Z,29.90
2022-11-29T05:44:47.746Z,28.40
2022-11-29T05:47:29.774Z,29.40
2022-11-29T05:50:08.834Z,28.80
2022-11-29T05:53:07.487Z,32.50
2022-11-29T05:55:59.554Z,29.90
2022-11-29T05:58:39.753Z,27.90
2022-11-29T06:01:22.905Z,31.60
2022-11-29T06:04:20.911Z,27.10
2022-11-29T06:07:25.314Z,23.70
2022-11-29T06:10:01.629Z,25.00
2022-11-29T06:12:35.067Z,33.50
2022-11-29T06:15:16.568Z,32.90
2022-11-29T06:18:29.509Z,29.10
2022-11-29T06:20:58.694Z,25.30
2022-11-29T06:23:51.090Z,28.20
2022-11-29T06:26:34.468Z,25.90
2022-11-29T06:29:24.721Z,27.90
2022-11-29T06:32:08.546Z,25.90
2022-11-29T06:34:47.262Z,28.40
2022-11-29T06:37:27.283Z,26.90
2022-11-29T06:39:55.856Z,28.90
2022-11-29T06:42:24.014Z,32.50
2022-11-29T06:44:52.519Z,34.40
2022-11-29T06:47:55.512Z,42.20
2022-11-29T06:50:33.100Z,80.40
2022-11-29T06:53:29.748Z,85.00
2022-11-29T06:56:41.886Z,82.50
2022-11-29T06:59:29.037Z,68.20
2022-11-29T07:02:06.014Z,48.60
2022-11-29T07:05:05.405Z,49.30
2022-11-29T07:07:35.331Z,42.00
2022-11-29T07:10:08.312Z,46.50
2022-11-29T07:12:40.559Z,67.50
2022-11-29T07:15:14.296Z,68.20
2022-11-29T07:18:09.246Z,55.80
2022-11-29T07:21:08.828Z,38.80
2022-11-29T07:23:58.844Z,64.80
2022-11-29T07:26:35.072Z,60.10
2022-11-29T07:29:41.503Z,61.00
2022-11-29T07:33:03.930Z,60.30
2022-11-29T07:35:32.033Z,51.50
2022-11-29T07:38:11.508Z,39.20
2022-11-29T07:40:58.511Z,33.30
2022-11-29T07:43:29.743Z,30.80
2022-11-29T07:45:57.924Z,28.50
2022-11-29T07:48:27.018Z,60.00
2022-11-29T07:50:56.376Z,101.30
2022-11-29T07:53:24.891Z,96.90
2022-11-29T07:55:53.314Z,98.20
2022-11-29T07:58:21.579Z,204.80
2022-11-29T08:00:49.792Z,173.00
2022-11-29T08:03:18.276Z,133.90
2022-11-29T08:05:47.950Z,111.60
2022-11-29T08:08:16.380Z,121.00
2022-11-29T08:10:45.366Z,152.70
2022-11-29T08:13:14.187Z,169.00
2022-11-29T08:15:46.748Z,129.40
2022-11-29T08:18:17.810Z,61.30
2022-11-29T08:20:46.481Z,33.60
2022-11-29T08:23:14.816Z,27.00
2022-11-29T08:25:42.942Z,28.20
2022-11-29T08:28:11.383Z,79.90
2022-11-29T08:30:39.626Z,142.40
2022-11-29T08:33:07.862Z,129.30
2022-11-29T08:35:36.479Z,107.70
2022-11-29T08:38:05.091Z,59.30
2022-11-29T08:40:33.220Z,47.20
2022-11-29T08:43:01.296Z,64.10
2022-11-29T08:45:29.431Z,82.30
2022-11-29T08:47:57.487Z,138.00
2022-11-29T08:50:25.850Z,135.40
2022-11-29T08:53:12.854Z,131.90
2022-11-29T08:55:43.169Z,84.00
2022-11-29T08:58:13.996Z,96.70
2022-11-29T09:03:30.536Z,114.50
2022-11-29T09:05:59.381Z,73.80
2022-11-29T09:08:27.476Z,90.40
2022-11-29T09:10:55.550Z,76.90
2022-11-29T09:13:23.612Z,59.70
2022-11-29T09:15:52.213Z,33.70
2022-11-29T09:18:22.728Z,28.10
2022-11-29T09:23:18.565Z,23.20
2022-11-29T09:25:50.187Z,23.60
2022-11-29T09:28:18.292Z,24.40
2022-11-29T09:30:46.427Z,22.70
2022-11-29T09:33:14.388Z,22.30
2022-11-29T09:35:42.678Z,26.20
2022-11-29T09:38:12.426Z,23.90
2022-11-29T09:40:52.365Z,21.10
2022-11-29T09:43:41.956Z,21.10
2022-11-29T09:46:30.329Z,23.70
2022-11-29T09:49:13.532Z,20.80
2022-11-29T09:54:49.456Z,22.10
2022-11-29T09:57:19.851Z,20.60
2022-11-29T10:02:34.725Z,18.00
2022-11-29T10:05:26.365Z,24.50
2022-11-29T10:08:07.329Z,22.40
2022-11-29T10:10:46.392Z,21.40
2022-11-29T10:13:35.722Z,18.20
2022-11-29T10:16:14.522Z,20.00
2022-11-29T10:18:54.510Z,20.90
2022-11-29T10:21:28.511Z,21.60
2022-11-29T10:24:02.364Z,20.60
2022-11-29T10:26:35.152Z,19.20
2022-11-29T10:29:04.281Z,19.70
2022-11-29T10:31:37.221Z,14.90
2022-11-29T10:34:15.690Z,18.50
2022-11-29T10:36:59.807Z,15.00
2022-11-29T10:39:39.839Z,22.90
2022-11-29T10:42:39.067Z,28.10
2022-11-29T10:45:25.444Z,18.20
2022-11-29T10:48:01.874Z,17.50
2022-11-29T10:50:33.792Z,19.60
2022-11-29T10:53:07.304Z,18.70
2022-11-29T10:55:55.029Z,13.50
2022-11-29T10:58:28.336Z,16.00
2022-11-29T11:01:11.398Z,21.70
2022-11-29T11:03:52.785Z,15.40
2022-11-29T11:06:43.163Z,15.90
2022-11-29T11:09:23.320Z,14.60
2022-11-29T11:11:55.800Z,13.90
2022-11-29T11:14:27.882Z,15.00
2022-11-29T11:16:56.307Z,12.50
2022-11-29T11:19:29.352Z,13.60
2022-11-29T11:22:03.484Z,14.40
2022-11-29T11:24:36.120Z,13.60
2022-11-29T11:27:05.029Z,14.00
2022-11-29T11:29:40.431Z,20.40
2022-11-29T11:32:17.963Z,17.30
2022-11-29T11:35:22.605Z,12.30
2022-11-29T11:37:57.694Z,13.50
2022-11-29T11:40:29.360Z,11.50
2022-11-29T11:43:03.024Z,13.20
2022-11-29T11:45:35.466Z,12.20
2022-11-29T11:48:16.367Z,13.00
2022-11-29T11:53:33.936Z,11.40
2022-11-29T11:56:09.768Z,12.10
2022-11-29T11:58:54.862Z,13.50
2022-11-29T12:01:44.382Z,9.90
2022-11-29T12:04:17.979Z,11.00
2022-11-29T12:06:55.240Z,13.40
2022-11-29T12:09:35.111Z,16.50
2022-11-29T12:12:17.730Z,15.00
2022-11-29T12:15:01.574Z,12.70
2022-11-29T12:17:46.629Z,12.00
2022-11-29T12:20:23.963Z,12.60
2022-11-29T12:22:58.119Z,10.80
2022-11-29T12:25:35.340Z,10.20
2022-11-29T12:28:03.923Z,11.40
2022-11-29T12:30:33.969Z,10.60
2022-11-29T12:33:24.204Z,9.60
2022-11-29T12:36:36.716Z,12.40
2022-11-29T12:39:37.186Z,9.30
2022-11-29T12:42:28.697Z,16.60
2022-11-29T12:44:57.396Z,10.10
2022-11-29T12:48:03.812Z,9.60
2022-11-29T12:51:08.130Z,9.00
2022-11-29T12:54:19.367Z,11.80
2022-11-29T12:57:05.740Z,16.80
2022-11-29T12:59:58.273Z,28.00
2022-11-29T13:02:29.477Z,22.50
2022-11-29T13:05:24.799Z,10.40
2022-11-29T13:08:23.717Z,9.80
2022-11-29T13:11:17.741Z,10.10
2022-11-29T13:14:41.596Z,9.10
2022-11-29T13:17:05.393Z,9.20
2022-11-29T13:19:42.638Z,9.50
2022-11-29T13:22:44.418Z,9.20
2022-11-29T13:25:18.916Z,8.80
2022-11-29T13:28:07.277Z,9.40
2022-11-29T13:30:36.016Z,10.60
2022-11-29T13:33:32.564Z,11.10
2022-11-29T13:36:00.612Z,12.90
2022-11-29T13:38:54.816Z,8.30
2022-11-29T13:41:46.371Z,10.20
2022-11-29T13:44:19.841Z,10.00
2022-11-29T13:47:07.272Z,13.10
2022-11-29T13:49:54.277Z,13.80
2022-11-29T13:52:47.354Z,11.40
2022-11-29T13:55:28.969Z,11.10
2022-11-29T13:58:16.661Z,14.40
2022-11-29T14:00:45.434Z,11.20
2022-11-29T14:03:29.025Z,12.50
2022-11-29T14:06:18.708Z,9.60
2022-11-29T14:09:27.334Z,11.80
2022-11-29T14:12:06.590Z,13.60
2022-11-29T14:14:42.018Z,17.70
2022-11-29T14:17:37.425Z,18.40
2022-11-29T14:20:24.443Z,20.10
2022-11-29T14:23:05.490Z,21.50
2022-11-29T14:25:51.301Z,20.50
2022-11-29T14:28:22.359Z,20.90
2022-11-29T14:30:55.426Z,20.60
2022-11-29T14:33:47.035Z,17.40
2022-11-29T14:36:15.434Z,16.40
2022-11-29T14:39:02.080Z,14.20
2022-11-29T14:41:52.238Z,14.70
2022-11-29T14:44:25.487Z,15.90
2022-11-29T14:47:32.078Z,13.30
2022-11-29T14:50:04.247Z,14.50
2022-11-29T14:52:52.420Z,11.60
2022-11-29T14:55:20.552Z,12.00
2022-11-29T14:57:54.754Z,12.50
2022-11-29T15:00:34.958Z,13.00
2022-11-29T15:03:14.037Z,17.30
2022-11-29T15:05:46.401Z,14.20
2022-11-29T15:08:20.662Z,12.70
2022-11-29T15:10:57.623Z,14.90
2022-11-29T15:13:35.004Z,14.60
2022-11-29T15:16:09.294Z,17.20
2022-11-29T15:19:13.540Z,17.60
2022-11-29T15:22:13.959Z,16.20
2022-11-29T15:24:55.698Z,16.10
2022-11-29T15:27:25.372Z,14.40
2022-11-29T15:29:55.369Z,17.30
2022-11-29T15:32:32.830Z,12.40
2022-11-29T15:35:02.419Z,12.90
2022-11-29T15:37:37.424Z,12.30
2022-11-29T15:40:21.273Z,10.30
2022-11-29T15:43:12.513Z,12.00
2022-11-29T15:48:19.721Z,12.00
2022-11-29T15:51:07.243Z,15.90
2022-11-29T15:53:35.334Z,12.70
2022-11-29T15:56:11.576Z,18.90
2022-11-29T15:58:40.153Z,16.90
2022-11-29T16:01:09.442Z,19.30
2022-11-29T16:03:41.056Z,18.10
2022-11-29T16:06:26.477Z,18.50
2022-11-29T16:08:58.812Z,15.40
2022-11-29T16:11:34.487Z,15.60
2022-11-29T16:14:22.629Z,16.10
2022-11-29T16:16:53.364Z,13.00
2022-11-29T16:19:31.234Z,18.10
2022-11-29T16:22:08.467Z,11.90
2022-11-29T16:24:39.149Z,12.90
2022-11-29T16:27:08.277Z,12.60
2022-11-29T16:29:41.878Z,12.90
2022-11-29T16:32:35.224Z,12.70
2022-11-29T16:35:14.230Z,15.00
2022-11-29T16:37:44.566Z,16.90
2022-11-29T16:40:38.986Z,15.60
2022-11-29T16:43:24.161Z,17.80
2022-11-29T16:46:20.666Z,12.60
2022-11-29T16:49:03.689Z,13.10
2022-11-29T16:51:39.220Z,18.20
2022-11-29T16:54:26.180Z,16.90
2022-11-29T16:56:57.331Z,13.00
2022-11-29T16:59:28.554Z,14.30
2022-11-29T17:01:57.428Z,15.60
2022-11-29T17:04:26.302Z,12.50
2022-11-29T17:06:57.193Z,12.60
2022-11-29T17:09:33.220Z,11.50
2022-11-29T17:12:03.351Z,13.60
2022-11-29T17:14:32.244Z,14.10
2022-11-29T17:17:01.400Z,19.00
2022-11-29T17:19:31.441Z,18.70
2022-11-29T17:22:02.142Z,20.50
2022-11-29T17:24:30.293Z,20.50
2022-11-29T17:26:59.032Z,19.00
2022-11-29T17:29:30.140Z,18.90
2022-11-29T17:31:58.906Z,19.70
2022-11-29T17:34:26.968Z,21.50
2022-11-29T17:36:57.837Z,23.90
2022-11-29T17:39:26.945Z,21.20
2022-11-29T17:41:56.193Z,22.50
2022-11-29T17:44:24.248Z,21.70
2022-11-29T17:46:53.045Z,25.10
2022-11-29T17:49:21.175Z,24.80
2022-11-29T17:51:52.396Z,20.50
2022-11-29T17:54:27.208Z,18.00
2022-11-29T17:56:56.334Z,17.30
2022-11-29T17:59:28.640Z,18.70
2022-11-29T18:01:57.024Z,25.30
2022-11-29T18:04:25.612Z,37.70
2022-11-29T18:06:55.188Z,28.90
2022-11-29T18:09:23.352Z,23.80
2022-11-29T18:11:53.180Z,23.90
2022-11-29T18:14:23.977Z,21.80
2022-11-29T18:16:52.538Z,18.40
2022-11-29T18:19:22.832Z,21.60
2022-11-29T18:21:52.351Z,20.90
2022-11-29T18:24:20.536Z,19.80
2022-11-29T18:26:49.149Z,21.00
2022-11-29T18:29:17.560Z,23.30
2022-11-29T18:31:49.782Z,18.70
2022-11-29T18:34:17.883Z,19.80
2022-11-29T18:36:48.895Z,22.60
2022-11-29T18:39:20.735Z,22.10
2022-11-29T18:41:50.135Z,20.10
2022-11-29T18:44:21.173Z,28.40
2022-11-29T18:46:51.159Z,20.20
2022-11-29T18:49:19.886Z,22.20
2022-11-29T18:51:50.043Z,20.00
2022-11-29T18:54:19.402Z,28.30
2022-11-29T18:56:50.222Z,33.20
2022-11-29T18:59:18.514Z,34.50
2022-11-29T19:01:48.576Z,33.10
2022-11-29T19:04:21.169Z,33.20
2022-11-29T19:06:49.668Z,42.80
2022-11-29T19:09:21.461Z,44.70
2022-11-29T19:11:51.186Z,44.80
2022-11-29T19:14:19.484Z,42.30
2022-11-29T19:16:50.159Z,48.70
2022-11-29T19:19:19.566Z,43.10
2022-11-29T19:21:48.868Z,41.30
2022-11-29T19:24:18.385Z,42.20
2022-11-29T19:26:50.371Z,40.50
2022-11-29T19:29:20.605Z,38.70
2022-11-29T19:31:50.480Z,30.00
2022-11-29T19:34:19.163Z,39.10
2022-11-29T19:36:47.250Z,37.60
2022-11-29T19:39:17.050Z,34.60
2022-11-29T19:41:48.101Z,41.80
2022-11-29T19:44:18.149Z,42.40
2022-11-29T19:46:48.827Z,67.80
2022-11-29T19:51:45.355Z,53.50
2022-11-29T19:54:13.472Z,45.90
2022-11-29T19:56:42.153Z,38.50
2022-11-29T19:59:10.328Z,42.90
2022-11-29T20:01:41.431Z,35.20
2022-11-29T20:04:13.019Z,39.00
2022-11-29T20:09:11.787Z,43.00
2022-11-29T20:11:39.821Z,42.20
2022-11-29T20:14:08.924Z,49.60
2022-11-29T20:16:39.180Z,50.90
2022-11-29T20:19:15.904Z,47.30
2022-11-29T20:21:49.098Z,42.60
2022-11-29T20:24:19.458Z,39.00
2022-11-29T20:26:49.091Z,33.40
2022-11-29T20:29:18.157Z,40.20
2022-11-29T20:31:50.518Z,39.40
2022-11-29T20:34:20.499Z,37.10
2022-11-29T20:37:24.139Z,33.80
2022-11-29T20:40:01.899Z,27.80
2022-11-29T20:42:49.764Z,35.70
2022-11-29T20:45:18.503Z,33.20
2022-11-29T20:47:46.566Z,30.00
2022-11-29T20:50:23.831Z,33.50
2022-11-29T20:53:07.680Z,34.80
2022-11-29T20:55:42.625Z,26.90
2022-11-29T20:58:13.469Z,28.90
2022-11-29T21:00:41.860Z,19.90
2022-11-29T21:03:14.471Z,20.80
2022-11-29T21:05:42.918Z,26.70
2022-11-29T21:08:11.356Z,31.10
2022-11-29T21:10:40.047Z,27.90
2022-11-29T21:13:10.899Z,25.80
2022-11-29T21:15:41.189Z,23.30
2022-11-29T21:18:19.989Z,23.10
2022-11-29T21:21:00.229Z,24.70
2022-11-29T21:23:34.375Z,26.10
2022-11-29T21:26:10.605Z,25.20
2022-11-29T21:28:46.999Z,24.10
2022-11-29T21:31:17.879Z,25.30
2022-11-29T21:33:46.324Z,26.30
2022-11-29T21:36:14.436Z,26.10
2022-11-29T21:38:42.592Z,27.50
2022-11-29T21:41:11.876Z,25.60
2022-11-29T21:44:05.513Z,26.30
2022-11-29T21:46:28.823Z,26.00
2022-11-29T21:48:56.880Z,25.80
2022-11-29T21:51:25.036Z,24.50
2022-11-29T21:53:53.085Z,29.20
2022-11-29T21:56:21.066Z,24.90
2022-11-29T21:58:49.179Z,29.60
2022-11-29T22:01:19.756Z,25.70
2022-11-29T22:03:48.183Z,29.90
2022-11-29T22:06:21.276Z,25.30
2022-11-29T22:08:52.337Z,25.70
2022-11-29T22:11:31.417Z,25.40
2022-11-29T22:14:19.979Z,27.70
2022-11-29T22:16:51.032Z,32.80
2022-11-29T22:19:23.670Z,24.30
2022-11-29T22:22:05.499Z,31.90
2022-11-29T22:24:36.335Z,22.10
2022-11-29T22:27:04.526Z,28.50
2022-11-29T22:29:32.671Z,24.20
2022-11-29T22:32:01.313Z,27.90
2022-11-29T22:34:29.423Z,31.40
2022-11-29T22:36:57.558Z,40.30
2022-11-29T22:39:25.782Z,33.40
2022-11-29T22:41:54.925Z,31.30
2022-11-29T22:44:24.643Z,38.60
2022-11-29T22:46:54.037Z,33.40
2022-11-29T22:49:22.234Z,39.90
2022-11-29T22:51:50.422Z,36.50
2022-11-29T22:54:18.488Z,37.00
2022-11-29T22:56:47.264Z,38.00
2022-11-29T22:59:15.256Z,34.30
2022-11-29T23:01:43.657Z,40.10
2022-11-29T23:04:13.307Z,42.10
2022-11-29T23:06:43.874Z,36.60
2022-11-29T23:09:19.908Z,35.80
2022-11-29T23:11:56.373Z,33.90
2022-11-29T23:14:24.871Z,30.20
2022-11-29T23:16:53.216Z,33.10
2022-11-29T23:19:21.564Z,31.30
2022-11-29T23:21:49.785Z,23.70
2022-11-29T23:24:17.919Z,32.10
2022-11-29T23:26:47.439Z,35.70
2022-11-29T23:29:18.627Z,41.10
2022-11-29T23:31:47.541Z,45.60
2022-11-29T23:34:15.748Z,31.80
2022-11-29T23:39:21.256Z,32.50
2022-11-29T23:41:49.373Z,29.20
2022-11-29T23:44:17.413Z,32.30
2022-11-29T23:46:45.420Z,28.50
2022-11-29T23:49:13.557Z,29.70
2022-11-29T23:51:42.519Z,25.60
2022-11-29T23:54:10.568Z,38.30
2022-11-29T23:56:38.724Z,49.20
2022-11-29T23:59:06.819Z,49.10
